sensor_id;sensor_type;location;lat;lon;timestamp;temperature;humidity
38514;DHT22;24282;48.400;10.808;2023-03-07T00:01:37;2.80;73.80
38514;DHT22;24282;48.400;10.808;2023-03-07T00:04:02;2.80;74.10
38514;DHT22;24282;48.400;10.808;2023-03-07T00:06:28;2.80;74.30
38514;DHT22;24282;48.400;10.808;2023-03-07T00:08:57;2.80;74.30
38514;DHT22;24282;48.400;10.808;2023-03-07T00:11:23;2.80;74.00
38514;DHT22;24282;48.400;10.808;2023-03-07T00:13:49;2.80;74.00
38514;DHT22;24282;48.400;10.808;2023-03-07T00:16:18;2.80;74.20
38514;DHT22;24282;48.400;10.808;2023-03-07T00:18:44;2.70;74.10
38514;DHT22;24282;48.400;10.808;2023-03-07T00:21:12;2.80;74.30
38514;DHT22;24282;48.400;10.808;2023-03-07T00:23:39;2.80;74.30
38514;DHT22;24282;48.400;10.808;2023-03-07T00:26:11;2.80;74.20
38514;DHT22;24282;48.400;10.808;2023-03-07T00:28:38;2.80;74.20
38514;DHT22;24282;48.400;10.808;2023-03-07T00:31:09;2.70;74.40
38514;DHT22;24282;48.400;10.808;2023-03-07T00:33:36;2.70;74.40
38514;DHT22;24282;48.400;10.808;2023-03-07T00:36:19;2.80;74.00
38514;DHT22;24282;48.400;10.808;2023-03-07T00:38:45;2.80;74.00
38514;DHT22;24282;48.400;10.808;2023-03-07T00:41:17;2.80;73.70
38514;DHT22;24282;48.400;10.808;2023-03-07T00:43:43;2.80;73.60
38514;DHT22;24282;48.400;10.808;2023-03-07T00:46:12;2.80;73.60
38514;DHT22;24282;48.400;10.808;2023-03-07T00:48:39;2.80;73.70
38514;DHT22;24282;48.400;10.808;2023-03-07T00:51:07;2.80;73.40
38514;DHT22;24282;48.400;10.808;2023-03-07T00:53:33;2.80;73.40
38514;DHT22;24282;48.400;10.808;2023-03-07T00:56:04;2.80;73.20
38514;DHT22;24282;48.400;10.808;2023-03-07T00:58:32;2.80;73.30
38514;DHT22;24282;48.400;10.808;2023-03-07T01:00:58;2.80;73.60
38514;DHT22;24282;48.400;10.808;2023-03-07T01:03:25;2.80;73.70
38514;DHT22;24282;48.400;10.808;2023-03-07T01:05:52;2.80;73.80
38514;DHT22;24282;48.400;10.808;2023-03-07T01:08:19;2.80;73.90
38514;DHT22;24282;48.400;10.808;2023-03-07T01:10:45;2.80;73.90
38514;DHT22;24282;48.400;10.808;2023-03-07T01:13:14;2.80;73.90
38514;DHT22;24282;48.400;10.808;2023-03-07T01:15:40;2.80;73.90
38514;DHT22;24282;48.400;10.808;2023-03-07T01:18:06;2.80;74.00
38514;DHT22;24282;48.400;10.808;2023-03-07T01:20:35;2.80;74.00
38514;DHT22;24282;48.400;10.808;2023-03-07T01:23:01;2.80;74.20
38514;DHT22;24282;48.400;10.808;2023-03-07T01:25:27;2.80;74.20
38514;DHT22;24282;48.400;10.808;2023-03-07T01:27:54;2.80;74.20
38514;DHT22;24282;48.400;10.808;2023-03-07T01:30:24;2.80;74.30
38514;DHT22;24282;48.400;10.808;2023-03-07T01:32:55;2.70;74.40
38514;DHT22;24282;48.400;10.808;2023-03-07T01:35:22;2.70;74.40
38514;DHT22;24282;48.400;10.808;2023-03-07T01:37:52;2.70;74.40
38514;DHT22;24282;48.400;10.808;2023-03-07T01:40:19;2.70;74.20
38514;DHT22;24282;48.400;10.808;2023-03-07T01:42:45;2.70;74.30
38514;DHT22;24282;48.400;10.808;2023-03-07T01:47:45;2.70;74.30
38514;DHT22;24282;48.400;10.808;2023-03-07T01:50:15;2.70;74.10
38514;DHT22;24282;48.400;10.808;2023-03-07T01:52:48;2.70;74.10
38514;DHT22;24282;48.400;10.808;2023-03-07T01:55:17;2.70;74.10
38514;DHT22;24282;48.400;10.808;2023-03-07T01:57:47;2.70;74.10
38514;DHT22;24282;48.400;10.808;2023-03-07T02:00:18;2.70;73.90
38514;DHT22;24282;48.400;10.808;2023-03-07T02:05:50;2.70;73.80
38514;DHT22;24282;48.400;10.808;2023-03-07T02:08:20;2.70;73.70
38514;DHT22;24282;48.400;10.808;2023-03-07T02:10:47;2.70;73.60
38514;DHT22;24282;48.400;10.808;2023-03-07T02:13:13;2.70;73.50
38514;DHT22;24282;48.400;10.808;2023-03-07T02:15:40;2.70;73.50
38514;DHT22;24282;48.400;10.808;2023-03-07T02:18:06;2.70;73.40
38514;DHT22;24282;48.400;10.808;2023-03-07T02:20:47;2.70;73.50
38514;DHT22;24282;48.400;10.808;2023-03-07T02:23:29;2.70;73.40
38514;DHT22;24282;48.400;10.808;2023-03-07T02:28:48;2.70;73.60
38514;DHT22;24282;48.400;10.808;2023-03-07T02:31:14;2.60;73.70
38514;DHT22;24282;48.400;10.808;2023-03-07T02:33:40;2.60;73.90
38514;DHT22;24282;48.400;10.808;2023-03-07T02:36:13;2.60;73.80
38514;DHT22;24282;48.400;10.808;2023-03-07T02:38:48;2.60;73.50
38514;DHT22;24282;48.400;10.808;2023-03-07T02:41:19;2.60;73.10
38514;DHT22;24282;48.400;10.808;2023-03-07T02:43:45;2.50;73.20
38514;DHT22;24282;48.400;10.808;2023-03-07T02:46:11;2.50;73.50
38514;DHT22;24282;48.400;10.808;2023-03-07T02:48:37;2.60;73.70
38514;DHT22;24282;48.400;10.808;2023-03-07T02:51:03;2.50;73.70
38514;DHT22;24282;48.400;10.808;2023-03-07T02:53:29;2.50;73.80
38514;DHT22;24282;48.400;10.808;2023-03-07T02:55:54;2.50;73.80
38514;DHT22;24282;48.400;10.808;2023-03-07T02:58:20;2.50;73.60
38514;DHT22;24282;48.400;10.808;2023-03-07T03:00:46;2.50;73.70
38514;DHT22;24282;48.400;10.808;2023-03-07T03:03:13;2.50;74.00
38514;DHT22;24282;48.400;10.808;2023-03-07T03:05:39;2.50;74.30
38514;DHT22;24282;48.400;10.808;2023-03-07T03:08:05;2.50;74.10
38514;DHT22;24282;48.400;10.808;2023-03-07T03:10:31;2.50;74.20
38514;DHT22;24282;48.400;10.808;2023-03-07T03:12:58;2.40;73.90
38514;DHT22;24282;48.400;10.808;2023-03-07T03:15:23;2.50;73.70
38514;DHT22;24282;48.400;10.808;2023-03-07T03:17:52;2.50;73.80
38514;DHT22;24282;48.400;10.808;2023-03-07T03:20:18;2.40;73.80
38514;DHT22;24282;48.400;10.808;2023-03-07T03:22:43;2.40;73.90
38514;DHT22;24282;48.400;10.808;2023-03-07T03:25:12;2.40;74.00
38514;DHT22;24282;48.400;10.808;2023-03-07T03:27:40;2.40;74.00
38514;DHT22;24282;48.400;10.808;2023-03-07T03:30:08;2.40;74.30
38514;DHT22;24282;48.400;10.808;2023-03-07T03:32:38;2.40;74.10
38514;DHT22;24282;48.400;10.808;2023-03-07T03:35:05;2.40;73.70
38514;DHT22;24282;48.400;10.808;2023-03-07T03:37:32;2.40;73.80
38514;DHT22;24282;48.400;10.808;2023-03-07T03:39:58;2.40;73.90
38514;DHT22;24282;48.400;10.808;2023-03-07T03:42:24;2.30;73.50
38514;DHT22;24282;48.400;10.808;2023-03-07T03:44:50;2.40;73.80
38514;DHT22;24282;48.400;10.808;2023-03-07T03:47:16;2.40;73.70
38514;DHT22;24282;48.400;10.808;2023-03-07T03:49:42;2.30;73.40
38514;DHT22;24282;48.400;10.808;2023-03-07T03:52:08;2.40;72.90
38514;DHT22;24282;48.400;10.808;2023-03-07T03:54:34;2.40;71.60
38514;DHT22;24282;48.400;10.808;2023-03-07T03:57:00;2.40;71.90
38514;DHT22;24282;48.400;10.808;2023-03-07T03:59:28;2.40;71.60
38514;DHT22;24282;48.400;10.808;2023-03-07T04:01:53;2.40;71.20
38514;DHT22;24282;48.400;10.808;2023-03-07T04:04:20;2.40;71.00
38514;DHT22;24282;48.400;10.808;2023-03-07T04:06:46;2.40;71.10
38514;DHT22;24282;48.400;10.808;2023-03-07T04:09:12;2.50;70.80
38514;DHT22;24282;48.400;10.808;2023-03-07T04:11:41;2.50;70.80
38514;DHT22;24282;48.400;10.808;2023-03-07T04:14:07;2.50;70.40
38514;DHT22;24282;48.400;10.808;2023-03-07T04:16:32;2.50;70.20
38514;DHT22;24282;48.400;10.808;2023-03-07T04:18:59;2.60;70.00
38514;DHT22;24282;48.400;10.808;2023-03-07T04:21:25;2.70;69.60
38514;DHT22;24282;48.400;10.808;2023-03-07T04:23:53;2.60;69.80
38514;DHT22;24282;48.400;10.808;2023-03-07T04:26:21;2.60;69.70
38514;DHT22;24282;48.400;10.808;2023-03-07T04:28:47;2.60;69.70
38514;DHT22;24282;48.400;10.808;2023-03-07T04:31:32;2.60;69.70
38514;DHT22;24282;48.400;10.808;2023-03-07T04:34:00;2.60;69.60
38514;DHT22;24282;48.400;10.808;2023-03-07T04:36:26;2.60;69.80
38514;DHT22;24282;48.400;10.808;2023-03-07T04:38:51;2.60;69.80
38514;DHT22;24282;48.400;10.808;2023-03-07T04:41:20;2.60;69.80
38514;DHT22;24282;48.400;10.808;2023-03-07T04:43:49;2.60;69.50
38514;DHT22;24282;48.400;10.808;2023-03-07T04:46:16;2.60;69.50
38514;DHT22;24282;48.400;10.808;2023-03-07T04:48:42;2.60;69.60
38514;DHT22;24282;48.400;10.808;2023-03-07T04:51:08;2.60;69.40
38514;DHT22;24282;48.400;10.808;2023-03-07T04:53:34;2.50;69.70
38514;DHT22;24282;48.400;10.808;2023-03-07T04:56:04;2.50;69.70
38514;DHT22;24282;48.400;10.808;2023-03-07T04:58:31;2.60;69.40
38514;DHT22;24282;48.400;10.808;2023-03-07T05:00:57;2.60;69.10
38514;DHT22;24282;48.400;10.808;2023-03-07T05:03:25;2.60;69.30
38514;DHT22;24282;48.400;10.808;2023-03-07T05:05:52;2.50;69.60
38514;DHT22;24282;48.400;10.808;2023-03-07T05:08:18;2.50;69.70
38514;DHT22;24282;48.400;10.808;2023-03-07T05:10:45;2.50;69.90
38514;DHT22;24282;48.400;10.808;2023-03-07T05:13:11;2.50;69.80
38514;DHT22;24282;48.400;10.808;2023-03-07T05:15:37;2.50;69.90
38514;DHT22;24282;48.400;10.808;2023-03-07T05:18:04;2.50;70.00
38514;DHT22;24282;48.400;10.808;2023-03-07T05:20:30;2.50;69.80
38514;DHT22;24282;48.400;10.808;2023-03-07T05:22:56;2.40;69.80
38514;DHT22;24282;48.400;10.808;2023-03-07T05:25:22;2.40;70.10
38514;DHT22;24282;48.400;10.808;2023-03-07T05:27:49;2.50;69.80
38514;DHT22;24282;48.400;10.808;2023-03-07T05:30:15;2.40;70.00
38514;DHT22;24282;48.400;10.808;2023-03-07T05:32:41;2.40;70.20
38514;DHT22;24282;48.400;10.808;2023-03-07T05:35:10;2.40;70.10
38514;DHT22;24282;48.400;10.808;2023-03-07T05:37:36;2.40;70.20
38514;DHT22;24282;48.400;10.808;2023-03-07T05:40:03;2.40;70.20
38514;DHT22;24282;48.400;10.808;2023-03-07T05:42:38;2.50;69.90
38514;DHT22;24282;48.400;10.808;2023-03-07T05:45:04;2.50;69.70
38514;DHT22;24282;48.400;10.808;2023-03-07T05:47:31;2.50;70.00
38514;DHT22;24282;48.400;10.808;2023-03-07T05:49:57;2.50;70.10
38514;DHT22;24282;48.400;10.808;2023-03-07T05:52:23;2.50;70.10
38514;DHT22;24282;48.400;10.808;2023-03-07T05:54:48;2.50;70.20
38514;DHT22;24282;48.400;10.808;2023-03-07T05:57:14;2.50;70.20
38514;DHT22;24282;48.400;10.808;2023-03-07T05:59:40;2.50;70.10
38514;DHT22;24282;48.400;10.808;2023-03-07T06:02:06;2.50;69.90
38514;DHT22;24282;48.400;10.808;2023-03-07T06:04:31;2.40;69.70
38514;DHT22;24282;48.400;10.808;2023-03-07T06:06:57;2.50;69.50
38514;DHT22;24282;48.400;10.808;2023-03-07T06:09:24;2.50;69.50
38514;DHT22;24282;48.400;10.808;2023-03-07T06:11:52;2.50;68.90
38514;DHT22;24282;48.400;10.808;2023-03-07T06:14:18;2.60;68.80
38514;DHT22;24282;48.400;10.808;2023-03-07T06:16:45;2.60;68.70
38514;DHT22;24282;48.400;10.808;2023-03-07T06:19:11;2.60;68.40
38514;DHT22;24282;48.400;10.808;2023-03-07T06:21:36;2.60;68.40
38514;DHT22;24282;48.400;10.808;2023-03-07T06:24:03;2.70;68.30
38514;DHT22;24282;48.400;10.808;2023-03-07T06:26:30;2.70;68.20
38514;DHT22;24282;48.400;10.808;2023-03-07T06:28:55;2.70;68.10
38514;DHT22;24282;48.400;10.808;2023-03-07T06:31:24;2.70;68.00
38514;DHT22;24282;48.400;10.808;2023-03-07T06:33:50;2.70;68.00
38514;DHT22;24282;48.400;10.808;2023-03-07T06:36:18;2.70;67.90
38514;DHT22;24282;48.400;10.808;2023-03-07T06:38:48;2.80;67.40
38514;DHT22;24282;48.400;10.808;2023-03-07T06:41:14;2.80;67.20
38514;DHT22;24282;48.400;10.808;2023-03-07T06:43:40;2.80;67.30
38514;DHT22;24282;48.400;10.808;2023-03-07T06:46:06;2.80;67.30
38514;DHT22;24282;48.400;10.808;2023-03-07T06:48:35;2.80;67.20
38514;DHT22;24282;48.400;10.808;2023-03-07T06:51:08;2.90;66.70
38514;DHT22;24282;48.400;10.808;2023-03-07T06:53:35;2.80;66.70
38514;DHT22;24282;48.400;10.808;2023-03-07T06:56:02;2.80;66.90
38514;DHT22;24282;48.400;10.808;2023-03-07T06:58:29;2.80;67.10
38514;DHT22;24282;48.400;10.808;2023-03-07T07:00:55;2.80;66.70
38514;DHT22;24282;48.400;10.808;2023-03-07T07:03:21;2.80;66.60
38514;DHT22;24282;48.400;10.808;2023-03-07T07:05:46;2.90;66.70
38514;DHT22;24282;48.400;10.808;2023-03-07T07:08:13;2.80;66.80
38514;DHT22;24282;48.400;10.808;2023-03-07T07:10:39;2.80;66.90
38514;DHT22;24282;48.400;10.808;2023-03-07T07:13:05;2.90;67.00
38514;DHT22;24282;48.400;10.808;2023-03-07T07:15:32;3.00;66.40
38514;DHT22;24282;48.400;10.808;2023-03-07T07:17:59;2.90;66.50
38514;DHT22;24282;48.400;10.808;2023-03-07T07:20:24;3.00;66.40
38514;DHT22;24282;48.400;10.808;2023-03-07T07:22:51;2.90;66.20
38514;DHT22;24282;48.400;10.808;2023-03-07T07:25:18;2.90;66.60
38514;DHT22;24282;48.400;10.808;2023-03-07T07:27:44;3.00;66.90
38514;DHT22;24282;48.400;10.808;2023-03-07T07:30:11;3.00;66.50
38514;DHT22;24282;48.400;10.808;2023-03-07T07:32:37;3.00;66.60
38514;DHT22;24282;48.400;10.808;2023-03-07T07:35:05;3.00;66.40
38514;DHT22;24282;48.400;10.808;2023-03-07T07:37:31;3.10;66.50
38514;DHT22;24282;48.400;10.808;2023-03-07T07:39:57;3.20;66.10
38514;DHT22;24282;48.400;10.808;2023-03-07T07:42:23;3.20;65.80
38514;DHT22;24282;48.400;10.808;2023-03-07T07:45:01;3.30;65.80
38514;DHT22;24282;48.400;10.808;2023-03-07T07:47:27;3.30;65.70
38514;DHT22;24282;48.400;10.808;2023-03-07T07:49:53;3.30;65.90
38514;DHT22;24282;48.400;10.808;2023-03-07T07:52:19;3.50;65.00
38514;DHT22;24282;48.400;10.808;2023-03-07T07:54:45;3.50;64.80
38514;DHT22;24282;48.400;10.808;2023-03-07T07:57:11;3.50;65.10
38514;DHT22;24282;48.400;10.808;2023-03-07T07:59:37;3.50;65.10
38514;DHT22;24282;48.400;10.808;2023-03-07T08:02:06;3.60;65.00
38514;DHT22;24282;48.400;10.808;2023-03-07T08:04:31;3.70;64.80
38514;DHT22;24282;48.400;10.808;2023-03-07T08:06:57;3.80;65.00
38514;DHT22;24282;48.400;10.808;2023-03-07T08:09:23;3.80;64.80
38514;DHT22;24282;48.400;10.808;2023-03-07T08:11:48;4.00;64.10
38514;DHT22;24282;48.400;10.808;2023-03-07T08:14:14;4.20;63.30
38514;DHT22;24282;48.400;10.808;2023-03-07T08:16:40;4.30;64.00
38514;DHT22;24282;48.400;10.808;2023-03-07T08:19:06;4.40;62.80
38514;DHT22;24282;48.400;10.808;2023-03-07T08:21:32;4.50;62.80
38514;DHT22;24282;48.400;10.808;2023-03-07T08:23:57;4.50;62.10
38514;DHT22;24282;48.400;10.808;2023-03-07T08:26:23;4.50;61.50
38514;DHT22;24282;48.400;10.808;2023-03-07T08:28:49;4.50;61.60
38514;DHT22;24282;48.400;10.808;2023-03-07T08:31:18;4.50;61.60
38514;DHT22;24282;48.400;10.808;2023-03-07T08:33:47;4.50;61.60
38514;DHT22;24282;48.400;10.808;2023-03-07T08:36:13;4.60;61.60
38514;DHT22;24282;48.400;10.808;2023-03-07T08:38:39;4.60;61.20
38514;DHT22;24282;48.400;10.808;2023-03-07T08:41:06;4.70;60.60
38514;DHT22;24282;48.400;10.808;2023-03-07T08:43:34;4.90;60.80
38514;DHT22;24282;48.400;10.808;2023-03-07T08:46:01;5.00;60.20
38514;DHT22;24282;48.400;10.808;2023-03-07T08:48:27;5.00;60.30
38514;DHT22;24282;48.400;10.808;2023-03-07T08:50:53;5.00;59.70
38514;DHT22;24282;48.400;10.808;2023-03-07T08:53:20;5.10;60.30
38514;DHT22;24282;48.400;10.808;2023-03-07T08:55:46;5.10;59.20
38514;DHT22;24282;48.400;10.808;2023-03-07T08:58:13;5.10;59.30
38514;DHT22;24282;48.400;10.808;2023-03-07T09:00:39;5.20;59.10
38514;DHT22;24282;48.400;10.808;2023-03-07T09:03:05;5.30;58.70
38514;DHT22;24282;48.400;10.808;2023-03-07T09:05:32;5.40;58.40
38514;DHT22;24282;48.400;10.808;2023-03-07T09:08:00;5.40;58.30
38514;DHT22;24282;48.400;10.808;2023-03-07T09:10:27;5.40;57.80
38514;DHT22;24282;48.400;10.808;2023-03-07T09:12:53;5.50;57.60
38514;DHT22;24282;48.400;10.808;2023-03-07T09:15:20;5.60;57.50
38514;DHT22;24282;48.400;10.808;2023-03-07T09:17:46;5.80;57.20
38514;DHT22;24282;48.400;10.808;2023-03-07T09:20:12;6.00;57.20
38514;DHT22;24282;48.400;10.808;2023-03-07T09:22:38;6.40;56.20
38514;DHT22;24282;48.400;10.808;2023-03-07T09:25:04;6.70;55.10
38514;DHT22;24282;48.400;10.808;2023-03-07T09:27:30;6.90;53.50
38514;DHT22;24282;48.400;10.808;2023-03-07T09:29:56;7.00;52.90
38514;DHT22;24282;48.400;10.808;2023-03-07T09:32:22;7.10;53.10
38514;DHT22;24282;48.400;10.808;2023-03-07T09:34:47;7.00;53.30
38514;DHT22;24282;48.400;10.808;2023-03-07T09:37:13;6.90;53.50
38514;DHT22;24282;48.400;10.808;2023-03-07T09:39:39;6.90;53.30
38514;DHT22;24282;48.400;10.808;2023-03-07T09:52:51;6.50;52.20
38514;DHT22;24282;48.400;10.808;2023-03-07T09:55:19;6.50;52.20
38514;DHT22;24282;48.400;10.808;2023-03-07T09:58:08;6.60;51.80
38514;DHT22;24282;48.400;10.808;2023-03-07T10:00:42;6.50;51.80
38514;DHT22;24282;48.400;10.808;2023-03-07T10:05:56;6.50;51.80
38514;DHT22;24282;48.400;10.808;2023-03-07T10:08:31;6.70;52.20
38514;DHT22;24282;48.400;10.808;2023-03-07T10:11:16;6.80;51.10
38514;DHT22;24282;48.400;10.808;2023-03-07T10:16:54;6.70;50.30
38514;DHT22;24282;48.400;10.808;2023-03-07T10:19:28;6.70;49.50
38514;DHT22;24282;48.400;10.808;2023-03-07T10:27:06;6.70;50.10
38514;DHT22;24282;48.400;10.808;2023-03-07T10:29:49;6.60;50.60
38514;DHT22;24282;48.400;10.808;2023-03-07T10:32:38;6.60;50.80
38514;DHT22;24282;48.400;10.808;2023-03-07T10:37:52;6.60;49.60
38514;DHT22;24282;48.400;10.808;2023-03-07T10:40:30;6.50;49.60
38514;DHT22;24282;48.400;10.808;2023-03-07T10:42:58;6.50;49.40
38514;DHT22;24282;48.400;10.808;2023-03-07T10:45:30;6.50;50.20
38514;DHT22;24282;48.400;10.808;2023-03-07T10:48:08;6.50;50.30
38514;DHT22;24282;48.400;10.808;2023-03-07T10:50:52;6.50;50.90
38514;DHT22;24282;48.400;10.808;2023-03-07T10:53:25;6.50;49.50
38514;DHT22;24282;48.400;10.808;2023-03-07T10:55:57;6.50;48.80
38514;DHT22;24282;48.400;10.808;2023-03-07T10:58:32;6.50;48.50
38514;DHT22;24282;48.400;10.808;2023-03-07T11:03:37;6.50;49.60
38514;DHT22;24282;48.400;10.808;2023-03-07T11:06:03;6.40;49.30
38514;DHT22;24282;48.400;10.808;2023-03-07T11:08:34;6.50;49.90
38514;DHT22;24282;48.400;10.808;2023-03-07T11:11:03;6.50;49.60
38514;DHT22;24282;48.400;10.808;2023-03-07T11:13:29;6.40;49.80
38514;DHT22;24282;48.400;10.808;2023-03-07T11:16:18;6.40;49.70
38514;DHT22;24282;48.400;10.808;2023-03-07T11:18:44;6.40;49.80
38514;DHT22;24282;48.400;10.808;2023-03-07T11:21:31;6.40;50.30
38514;DHT22;24282;48.400;10.808;2023-03-07T11:24:02;6.30;50.50
38514;DHT22;24282;48.400;10.808;2023-03-07T11:26:39;6.40;49.70
38514;DHT22;24282;48.400;10.808;2023-03-07T11:29:13;6.40;49.80
38514;DHT22;24282;48.400;10.808;2023-03-07T11:31:59;6.50;49.50
38514;DHT22;24282;48.400;10.808;2023-03-07T11:35:07;6.50;49.50
38514;DHT22;24282;48.400;10.808;2023-03-07T11:37:37;6.40;49.90
38514;DHT22;24282;48.400;10.808;2023-03-07T11:45:56;6.50;51.20
38514;DHT22;24282;48.400;10.808;2023-03-07T11:54:25;6.60;50.40
38514;DHT22;24282;48.400;10.808;2023-03-07T11:57:01;6.70;50.30
38514;DHT22;24282;48.400;10.808;2023-03-07T12:11:17;6.90;51.10
38514;DHT22;24282;48.400;10.808;2023-03-07T12:14:26;6.90;50.60
38514;DHT22;24282;48.400;10.808;2023-03-07T12:25:52;6.80;49.70
38514;DHT22;24282;48.400;10.808;2023-03-07T12:28:50;6.80;48.40
38514;DHT22;24282;48.400;10.808;2023-03-07T12:31:46;6.60;49.00
38514;DHT22;24282;48.400;10.808;2023-03-07T12:34:35;6.50;48.70
38514;DHT22;24282;48.400;10.808;2023-03-07T12:37:08;6.60;49.00
38514;DHT22;24282;48.400;10.808;2023-03-07T12:39:48;6.60;49.10
38514;DHT22;24282;48.400;10.808;2023-03-07T12:42:41;6.90;49.10
38514;DHT22;24282;48.400;10.808;2023-03-07T12:45:10;7.30;48.70
38514;DHT22;24282;48.400;10.808;2023-03-07T12:55:38;8.20;46.30
38514;DHT22;24282;48.400;10.808;2023-03-07T12:58:30;8.30;46.20
38514;DHT22;24282;48.400;10.808;2023-03-07T13:01:08;8.30;45.30
38514;DHT22;24282;48.400;10.808;2023-03-07T13:06:25;8.50;46.40
38514;DHT22;24282;48.400;10.808;2023-03-07T13:08:58;8.60;45.40
38514;DHT22;24282;48.400;10.808;2023-03-07T13:11:32;8.60;45.00
38514;DHT22;24282;48.400;10.808;2023-03-07T13:14:03;8.70;45.50
38514;DHT22;24282;48.400;10.808;2023-03-07T13:16:43;8.60;45.40
38514;DHT22;24282;48.400;10.808;2023-03-07T13:22:01;8.50;45.10
38514;DHT22;24282;48.400;10.808;2023-03-07T13:26:56;8.60;45.10
38514;DHT22;24282;48.400;10.808;2023-03-07T13:38:01;8.60;45.60
38514;DHT22;24282;48.400;10.808;2023-03-07T13:43:30;8.80;45.70
38514;DHT22;24282;48.400;10.808;2023-03-07T13:45:58;8.80;44.90
38514;DHT22;24282;48.400;10.808;2023-03-07T13:53:32;8.70;44.50
38514;DHT22;24282;48.400;10.808;2023-03-07T14:01:44;8.70;44.90
38514;DHT22;24282;48.400;10.808;2023-03-07T14:04:16;8.70;45.50
38514;DHT22;24282;48.400;10.808;2023-03-07T14:06:46;8.60;45.50
38514;DHT22;24282;48.400;10.808;2023-03-07T14:09:25;8.50;45.00
38514;DHT22;24282;48.400;10.808;2023-03-07T14:23:04;8.30;45.50
38514;DHT22;24282;48.400;10.808;2023-03-07T14:25:36;8.40;46.30
38514;DHT22;24282;48.400;10.808;2023-03-07T14:28:25;8.40;45.80
38514;DHT22;24282;48.400;10.808;2023-03-07T14:30:56;8.40;44.80
38514;DHT22;24282;48.400;10.808;2023-03-07T14:33:36;8.40;44.60
38514;DHT22;24282;48.400;10.808;2023-03-07T14:36:29;8.40;45.50
38514;DHT22;24282;48.400;10.808;2023-03-07T14:38:58;8.40;45.20
38514;DHT22;24282;48.400;10.808;2023-03-07T14:44:33;8.20;46.50
38514;DHT22;24282;48.400;10.808;2023-03-07T14:52:32;8.40;44.70
38514;DHT22;24282;48.400;10.808;2023-03-07T14:55:01;8.40;44.20
38514;DHT22;24282;48.400;10.808;2023-03-07T14:57:40;8.40;44.20
38514;DHT22;24282;48.400;10.808;2023-03-07T15:00:30;8.30;44.10
38514;DHT22;24282;48.400;10.808;2023-03-07T15:03:05;8.30;44.90
38514;DHT22;24282;48.400;10.808;2023-03-07T15:05:45;8.20;45.50
38514;DHT22;24282;48.400;10.808;2023-03-07T15:08:19;8.10;45.30
38514;DHT22;24282;48.400;10.808;2023-03-07T15:10:49;8.10;46.00
38514;DHT22;24282;48.400;10.808;2023-03-07T15:13:29;8.10;45.70
38514;DHT22;24282;48.400;10.808;2023-03-07T15:16:06;8.10;45.60
38514;DHT22;24282;48.400;10.808;2023-03-07T15:18:38;8.20;45.20
38514;DHT22;24282;48.400;10.808;2023-03-07T15:21:06;8.20;45.70
38514;DHT22;24282;48.400;10.808;2023-03-07T15:23:33;8.20;46.10
38514;DHT22;24282;48.400;10.808;2023-03-07T15:26:02;8.20;45.60
38514;DHT22;24282;48.400;10.808;2023-03-07T15:28:39;8.30;45.70
38514;DHT22;24282;48.400;10.808;2023-03-07T15:31:07;8.10;46.90
38514;DHT22;24282;48.400;10.808;2023-03-07T15:33:33;8.00;47.60
38514;DHT22;24282;48.400;10.808;2023-03-07T15:41:33;8.10;46.90
38514;DHT22;24282;48.400;10.808;2023-03-07T15:44:19;7.90;46.90
38514;DHT22;24282;48.400;10.808;2023-03-07T15:46:54;7.90;46.90
38514;DHT22;24282;48.400;10.808;2023-03-07T15:49:22;7.90;45.90
38514;DHT22;24282;48.400;10.808;2023-03-07T15:51:53;7.70;45.80
38514;DHT22;24282;48.400;10.808;2023-03-07T15:56:54;7.60;46.80
38514;DHT22;24282;48.400;10.808;2023-03-07T15:59:40;7.50;47.20
38514;DHT22;24282;48.400;10.808;2023-03-07T16:04:58;7.50;46.90
38514;DHT22;24282;48.400;10.808;2023-03-07T16:07:24;7.40;47.30
38514;DHT22;24282;48.400;10.808;2023-03-07T16:09:50;7.30;47.80
38514;DHT22;24282;48.400;10.808;2023-03-07T16:12:17;7.20;47.80
38514;DHT22;24282;48.400;10.808;2023-03-07T16:14:46;7.20;47.60
38514;DHT22;24282;48.400;10.808;2023-03-07T16:19:45;7.10;48.10
38514;DHT22;24282;48.400;10.808;2023-03-07T16:22:16;7.00;48.40
38514;DHT22;24282;48.400;10.808;2023-03-07T16:24:42;7.00;48.90
38514;DHT22;24282;48.400;10.808;2023-03-07T16:27:19;6.90;49.00
38514;DHT22;24282;48.400;10.808;2023-03-07T16:29:46;6.90;48.30
38514;DHT22;24282;48.400;10.808;2023-03-07T16:32:13;6.90;47.40
38514;DHT22;24282;48.400;10.808;2023-03-07T16:34:39;6.80;47.70
38514;DHT22;24282;48.400;10.808;2023-03-07T16:37:05;6.80;48.10
38514;DHT22;24282;48.400;10.808;2023-03-07T16:39:31;6.70;47.70
38514;DHT22;24282;48.400;10.808;2023-03-07T16:41:57;6.70;48.10
38514;DHT22;24282;48.400;10.808;2023-03-07T16:44:23;6.60;48.20
38514;DHT22;24282;48.400;10.808;2023-03-07T16:47:05;6.50;49.00
38514;DHT22;24282;48.400;10.808;2023-03-07T16:49:33;6.50;49.50
38514;DHT22;24282;48.400;10.808;2023-03-07T16:51:59;6.40;49.30
38514;DHT22;24282;48.400;10.808;2023-03-07T16:54:24;6.40;48.70
38514;DHT22;24282;48.400;10.808;2023-03-07T16:56:51;6.40;48.20
38514;DHT22;24282;48.400;10.808;2023-03-07T16:59:20;6.40;47.60
38514;DHT22;24282;48.400;10.808;2023-03-07T17:01:48;6.40;47.20
38514;DHT22;24282;48.400;10.808;2023-03-07T17:04:16;6.40;47.30
38514;DHT22;24282;48.400;10.808;2023-03-07T17:06:42;6.30;47.50
38514;DHT22;24282;48.400;10.808;2023-03-07T17:09:09;6.30;47.60
38514;DHT22;24282;48.400;10.808;2023-03-07T17:11:38;6.20;47.60
38514;DHT22;24282;48.400;10.808;2023-03-07T17:14:06;6.10;48.00
38514;DHT22;24282;48.400;10.808;2023-03-07T17:16:39;6.10;48.80
38514;DHT22;24282;48.400;10.808;2023-03-07T17:19:05;6.00;49.50
38514;DHT22;24282;48.400;10.808;2023-03-07T17:21:32;5.90;50.50
38514;DHT22;24282;48.400;10.808;2023-03-07T17:23:58;5.90;50.30
38514;DHT22;24282;48.400;10.808;2023-03-07T17:26:30;5.90;50.00
38514;DHT22;24282;48.400;10.808;2023-03-07T17:29:04;5.80;50.90
38514;DHT22;24282;48.400;10.808;2023-03-07T17:31:31;5.70;51.30
38514;DHT22;24282;48.400;10.808;2023-03-07T17:33:56;5.70;51.50
38514;DHT22;24282;48.400;10.808;2023-03-07T17:36:22;5.60;51.50
38514;DHT22;24282;48.400;10.808;2023-03-07T17:38:48;5.60;52.30
38514;DHT22;24282;48.400;10.808;2023-03-07T17:41:13;5.50;52.20
38514;DHT22;24282;48.400;10.808;2023-03-07T17:43:39;5.40;52.40
38514;DHT22;24282;48.400;10.808;2023-03-07T17:46:09;5.30;52.80
38514;DHT22;24282;48.400;10.808;2023-03-07T17:48:35;5.20;53.00
38514;DHT22;24282;48.400;10.808;2023-03-07T17:51:07;5.20;53.00
38514;DHT22;24282;48.400;10.808;2023-03-07T17:53:34;5.10;52.40
38514;DHT22;24282;48.400;10.808;2023-03-07T17:56:08;5.00;53.40
38514;DHT22;24282;48.400;10.808;2023-03-07T17:58:34;5.00;53.90
38514;DHT22;24282;48.400;10.808;2023-03-07T18:01:00;4.90;54.50
38514;DHT22;24282;48.400;10.808;2023-03-07T18:03:25;4.90;54.50